Time;durP1;ratioP1;P1;durP2;ratioP2;P2;SDS_P1;SDS_P2;PMS_P1;PMS_P2;Temp;Humidity;BMP_temperature;BMP_pressure;BME280_temperature;BME280_humidity;BME280_pressure;Samples;Min_cycle;Max_cycle;Signal;HPM_P1;HPM_P2
2021/07/24 00:01:28;;;;;;;28.42;14.77;;;;;;;18.57;68.04;101314.56;4793644;29;20134;-38
2021/07/24 00:03:55;;;;;;;26.42;15.27;;;;;;;18.53;68.65;101310.63;4793794;29;20059;-38
2021/07/24 00:06:41;;;;;;;26.33;15.32;;;;;;;18.54;68.56;101309.59;4795645;29;20074;-39
2021/07/24 00:09:08;;;;;;;26.52;13.50;;;;;;;18.55;68.31;101305.94;4799273;29;20581;-38
2021/07/24 00:11:35;;;;;;;26.00;14.00;;;;;;;18.52;68.48;101298.34;4792351;29;20059;-38
2021/07/24 00:14:01;;;;;;;29.00;14.50;;;;;;;18.50;68.66;101297.72;4802641;29;20054;-39
2021/07/24 00:16:28;;;;;;;26.63;14.70;;;;;;;18.45;68.57;101284.19;4794766;29;20050;-38
2021/07/24 00:18:54;;;;;;;25.85;14.93;;;;;;;18.41;68.78;101282.91;4801583;29;20055;-38
2021/07/24 00:21:21;;;;;;;26.17;13.85;;;;;;;18.45;68.22;101281.53;4795710;29;20149;-38
2021/07/24 00:23:47;;;;;;;25.40;13.98;;;;;;;18.46;67.94;101277.84;4801171;29;20202;-38
2021/07/24 00:26:14;;;;;;;28.25;14.90;;;;;;;18.49;68.25;101277.47;4805507;29;20167;-38
2021/07/24 00:28:41;;;;;;;26.60;13.77;;;;;;;18.47;68.66;101282.97;4801067;29;20066;-38
2021/07/24 00:31:08;;;;;;;27.58;14.80;;;;;;;18.44;68.19;101272.72;4797013;29;20149;-39
2021/07/24 00:33:35;;;;;;;25.88;13.85;;;;;;;18.43;68.64;101268.44;4788713;29;20077;-38
2021/07/24 00:36:02;;;;;;;21.65;11.95;;;;;;;18.39;68.27;101269.81;4793587;29;20181;-38
2021/07/24 00:38:28;;;;;;;28.80;14.60;;;;;;;18.35;68.95;101263.22;4792349;29;20634;-38
2021/07/24 00:40:59;;;;;;;29.90;14.85;;;;;;;18.38;68.46;101261.03;4800615;29;20193;-38
2021/07/24 00:43:30;;;;;;;22.70;13.77;;;;;;;18.36;68.76;101260.38;4799439;29;20090;-38
2021/07/24 00:45:57;;;;;;;29.95;13.73;;;;;;;18.35;69.01;101264.06;4796469;29;20053;-38
2021/07/24 00:48:24;;;;;;;26.85;14.35;;;;;;;18.31;69.47;101264.63;4792144;29;20515;-38
2021/07/24 00:50:54;;;;;;;25.95;14.18;;;;;;;18.30;69.58;101273.59;4787908;29;20094;-38
2021/07/24 00:53:22;;;;;;;31.50;15.05;;;;;;;18.22;69.88;101268.38;4794209;29;20141;-38
2021/07/24 00:55:51;;;;;;;28.08;14.65;;;;;;;18.21;69.81;101272.88;4793533;29;20567;-38
2021/07/24 00:58:31;;;;;;;29.73;14.95;;;;;;;18.15;70.28;101268.28;4792924;29;20063;-38
2021/07/24 01:01:00;;;;;;;27.50;14.48;;;;;;;18.11;70.51;101262.53;4790193;29;20515;-38
2021/07/24 01:03:27;;;;;;;30.42;15.23;;;;;;;18.13;70.14;101260.53;4794741;29;20504;-38
2021/07/24 01:05:56;;;;;;;27.33;15.05;;;;;;;18.13;70.53;101260.53;4801617;29;20055;-38
2021/07/24 01:08:24;;;;;;;26.60;15.30;;;;;;;18.14;70.70;101258.69;4796193;29;20067;-38
2021/07/24 01:10:52;;;;;;;29.38;15.48;;;;;;;18.13;70.26;101254.38;4800859;29;20090;-38
2021/07/24 01:13:19;;;;;;;28.70;15.88;;;;;;;18.14;70.49;101248.06;4807694;29;20624;-38
2021/07/24 01:15:48;;;;;;;30.40;13.43;;;;;;;18.19;68.85;101251.00;4801978;29;20050;-38
2021/07/24 01:18:15;;;;;;;30.33;15.60;;;;;;;18.15;70.51;101245.22;4797933;29;20074;-38
2021/07/24 01:20:42;;;;;;;31.60;15.48;;;;;;;18.12;70.98;101244.78;4800862;29;20110;-38
2021/07/24 01:23:10;;;;;;;25.25;13.70;;;;;;;18.08;70.58;101236.34;4794848;29;20519;-38
2021/07/24 01:25:47;;;;;;;29.80;14.18;;;;;;;18.08;70.75;101233.69;4802802;29;20101;-38
2021/07/24 01:28:23;;;;;;;26.58;14.15;;;;;;;18.08;70.86;101227.59;4813022;29;20145;-38
2021/07/24 01:30:50;;;;;;;29.88;15.65;;;;;;;17.97;71.20;101218.25;4790073;29;20510;-38
2021/07/24 01:33:17;;;;;;;25.42;13.40;;;;;;;18.00;70.49;101217.88;4800579;29;20179;-38
2021/07/24 01:35:48;;;;;;;26.83;14.60;;;;;;;17.99;70.86;101218.88;4794146;29;20086;-38
2021/07/24 01:38:16;;;;;;;28.63;15.32;;;;;;;17.94;71.43;101214.13;4797475;29;20461;-38
2021/07/24 01:40:43;;;;;;;30.02;15.07;;;;;;;17.92;71.63;101205.53;4794123;29;20058;-38
2021/07/24 01:43:10;;;;;;;22.83;12.63;;;;;;;17.92;70.62;101208.19;4806493;29;20150;-38
2021/07/24 01:45:38;;;;;;;28.80;14.13;;;;;;;17.91;71.23;101203.06;4797769;29;20137;-38
2021/07/24 01:48:09;;;;;;;27.50;14.13;;;;;;;17.88;70.65;101203.47;4794409;29;20050;-38
2021/07/24 01:53:23;;;;;;;29.83;14.68;;;;;;;17.80;71.84;101183.13;4791477;29;20135;-38
2021/07/24 01:55:56;;;;;;;28.25;13.93;;;;;;;17.74;72.05;101182.03;4795198;29;20476;-38
2021/07/24 01:58:28;;;;;;;27.95;14.48;;;;;;;17.74;72.10;101184.69;4788329;29;20183;-38
2021/07/24 02:00:58;;;;;;;31.20;15.00;;;;;;;17.66;72.78;101176.81;4796526;29;20145;-38
2021/07/24 02:03:28;;;;;;;31.08;15.55;;;;;;;17.67;72.71;101177.63;4809300;29;20141;-38
2021/07/24 02:05:55;;;;;;;27.83;13.48;;;;;;;17.64;72.20;101175.34;4807290;29;20086;-38
2021/07/24 02:08:25;;;;;;;26.60;14.13;;;;;;;17.63;71.80;101179.84;4794965;29;20129;-38
2021/07/24 02:10:52;;;;;;;29.40;14.80;;;;;;;17.60;72.79;101174.88;4807033;29;20141;-38
2021/07/24 02:13:19;;;;;;;28.85;14.75;;;;;;;17.56;72.98;101185.06;4810168;29;20051;-38
2021/07/24 02:15:46;;;;;;;30.00;15.23;;;;;;;17.47;73.71;101188.81;4793431;29;20133;-38
2021/07/24 02:18:16;;;;;;;31.10;15.20;;;;;;;17.48;73.78;101197.56;4802645;29;20225;-38
2021/07/24 02:20:46;;;;;;;32.70;14.70;;;;;;;17.43;73.38;101198.13;4793736;29;20643;-38
2021/07/24 02:23:15;;;;;;;28.92;15.15;;;;;;;17.41;73.99;101192.19;4793146;29;20138;-38
2021/07/24 02:25:42;;;;;;;32.20;15.73;;;;;;;17.37;74.01;101193.56;4794818;29;20559;-38
2021/07/24 02:28:09;;;;;;;32.03;15.75;;;;;;;17.35;74.47;101188.44;4789352;29;20158;-38
2021/07/24 02:30:36;;;;;;;27.65;14.40;;;;;;;17.36;74.10;101189.25;4787245;29;20142;-38
2021/07/24 02:33:03;;;;;;;29.80;14.98;;;;;;;17.28;74.66;101184.03;4780094;29;20051;-38
2021/07/24 02:35:29;;;;;;;31.70;15.07;;;;;;;17.26;74.88;101178.91;4790415;29;20141;-38
2021/07/24 02:37:56;;;;;;;30.00;14.57;;;;;;;17.29;74.74;101181.22;4797839;29;20065;-38
2021/07/24 02:40:23;;;;;;;33.85;15.32;;;;;;;17.25;75.14;101177.28;4799812;29;20086;-38
2021/07/24 02:42:49;;;;;;;31.13;14.98;;;;;;;17.22;74.89;101164.38;4793645;29;20138;-38
2021/07/24 02:45:16;;;;;;;33.50;15.35;;;;;;;17.18;75.78;101150.66;4799608;29;20234;-38
2021/07/24 02:47:42;;;;;;;31.15;14.82;;;;;;;17.19;75.28;101154.16;4795980;29;20117;-38
2021/07/24 02:50:09;;;;;;;29.27;15.05;;;;;;;17.17;75.61;101148.19;4779283;29;20163;-38
2021/07/24 02:52:36;;;;;;;35.17;16.95;;;;;;;17.12;75.70;101148.75;4786399;29;20115;-38
2021/07/24 02:55:02;;;;;;;31.45;15.48;;;;;;;17.08;75.81;101155.41;4793089;29;20062;-38
2021/07/24 02:57:29;;;;;;;28.52;14.70;;;;;;;17.08;75.59;101149.28;4797156;29;20141;-38
2021/07/24 02:59:55;;;;;;;29.33;15.05;;;;;;;17.00;76.40;101143.06;4788817;29;20149;-38
2021/07/24 03:02:22;;;;;;;27.85;14.27;;;;;;;16.99;75.96;101132.63;4792429;29;20124;-38
2021/07/24 03:04:49;;;;;;;29.67;14.57;;;;;;;16.98;76.16;101126.53;4798697;29;20086;-38
2021/07/24 03:07:16;;;;;;;27.60;13.75;;;;;;;16.96;76.65;101122.41;4790030;29;20120;-38
2021/07/24 03:09:43;;;;;;;35.65;14.93;;;;;;;16.94;76.90;101119.13;4799613;29;20051;-38
2021/07/24 03:12:10;;;;;;;34.25;15.82;;;;;;;16.91;76.96;101114.16;4803794;29;20622;-38
2021/07/24 03:14:36;;;;;;;33.20;14.90;;;;;;;16.83;77.75;101124.84;4799883;29;20086;-38
2021/07/24 03:17:03;;;;;;;29.42;14.95;;;;;;;16.80;77.43;101121.53;4793148;29;20104;-38
2021/07/24 03:19:29;;;;;;;31.55;15.50;;;;;;;16.79;77.68;101127.81;4799280;29;20598;-38
2021/07/24 03:21:56;;;;;;;35.85;15.82;;;;;;;16.78;77.49;101123.53;4797393;29;20086;-38
2021/07/24 03:24:22;;;;;;;32.80;15.32;;;;;;;16.79;76.68;101119.88;4775929;29;20575;-38
2021/07/24 03:26:49;;;;;;;33.75;15.68;;;;;;;16.77;77.39;101105.97;4780655;29;20130;-38
2021/07/24 03:29:15;;;;;;;33.55;14.68;;;;;;;16.76;78.11;101104.34;4775833;29;20397;-38
2021/07/24 03:31:41;;;;;;;34.70;14.15;;;;;;;16.77;76.48;101095.38;4781122;29;20059;-38
2021/07/24 03:34:08;;;;;;;37.42;16.55;;;;;;;16.75;77.19;101096.59;4786354;29;20419;-38
2021/07/24 03:36:34;;;;;;;32.47;14.98;;;;;;;16.74;77.34;101095.75;4795539;29;20233;-38
2021/07/24 03:39:01;;;;;;;38.47;16.40;;;;;;;16.76;77.59;101111.47;4789285;29;20134;-38
2021/07/24 03:41:27;;;;;;;33.75;15.00;;;;;;;16.73;77.39;101107.34;4798149;29;20090;-38
2021/07/24 03:43:54;;;;;;;33.00;15.80;;;;;;;16.74;77.87;101111.66;4798223;29;20058;-38
2021/07/24 03:46:21;;;;;;;33.58;15.70;;;;;;;16.70;78.37;101115.66;4792962;29;20054;-38
2021/07/24 03:48:48;;;;;;;32.15;15.73;;;;;;;16.65;78.54;101109.25;4798023;29;20381;-38
2021/07/24 03:51:16;;;;;;;30.92;15.07;;;;;;;16.65;78.21;101111.91;4787226;29;20153;-38
2021/07/24 03:53:42;;;;;;;35.50;16.70;;;;;;;16.61;78.75;101104.31;4797951;29;20086;-38
2021/07/24 03:56:19;;;;;;;35.10;15.88;;;;;;;16.64;78.93;101097.00;4791045;29;20154;-38
2021/07/24 03:58:47;;;;;;;35.42;15.32;;;;;;;16.66;78.60;101106.44;4797993;29;20157;-38
2021/07/24 04:01:14;;;;;;;33.55;16.25;;;;;;;16.68;78.14;101109.72;4800671;29;20137;-38
2021/07/24 04:03:41;;;;;;;38.17;15.68;;;;;;;16.64;78.62;101094.34;4801331;29;20055;-38
2021/07/24 04:06:09;;;;;;;31.85;15.77;;;;;;;16.66;78.48;101077.31;4804712;29;20058;-38
2021/07/24 04:08:35;;;;;;;31.48;15.88;;;;;;;16.66;78.33;101068.53;4791683;29;20097;-38
2021/07/24 04:11:04;;;;;;;36.67;16.15;;;;;;;16.68;78.23;101063.88;4797705;29;20070;-38
2021/07/24 04:13:31;;;;;;;;;;;;;;;16.71;78.18;101059.03;4793331;29;20507;-38
2021/07/24 04:15:59;;;;;;;33.65;14.90;;;;;;;16.71;78.26;101052.91;4796810;29;20569;-38
2021/07/24 04:18:29;;;;;;;38.22;16.13;;;;;;;16.68;79.26;101055.91;4788560;29;20141;-38
2021/07/24 04:20:56;;;;;;;40.15;17.45;;;;;;;16.63;79.10;101055.66;4796718;29;20146;-38
2021/07/24 04:23:22;;;;;;;42.70;17.52;;;;;;;16.60;79.87;101068.25;4791426;29;20448;-38
2021/07/24 04:25:49;;;;;;;37.42;16.45;;;;;;;16.59;79.41;101069.25;4782919;29;20564;-37
2021/07/24 04:28:16;;;;;;;38.50;17.30;;;;;;;16.61;79.90;101075.19;4780554;29;20059;-37
2021/07/24 04:30:42;;;;;;;39.13;17.80;;;;;;;16.62;79.55;101089.22;4784075;29;20602;-38
2021/07/24 04:33:09;;;;;;;38.95;17.10;;;;;;;16.60;80.16;101101.84;4794722;29;20122;-37
2021/07/24 04:35:35;;;;;;;38.40;16.70;;;;;;;16.62;80.09;101099.84;4792219;29;20142;-38
2021/07/24 04:38:02;;;;;;;39.63;17.60;;;;;;;16.66;79.62;101097.66;4799692;29;20726;-38
2021/07/24 04:40:29;;;;;;;41.13;17.30;;;;;;;16.69;79.57;101099.94;4799301;29;20154;-38
2021/07/24 04:42:55;;;;;;;38.63;17.40;;;;;;;16.73;79.42;101098.59;4792816;29;20146;-38
2021/07/24 04:45:21;;;;;;;44.10;16.90;;;;;;;16.75;79.82;101109.81;4801746;29;20090;-37
2021/07/24 04:47:48;;;;;;;40.97;17.42;;;;;;;16.76;80.09;101092.94;4796180;29;20141;-37
2021/07/24 04:50:15;;;;;;;34.90;15.48;;;;;;;16.80;79.40;101104.81;4801297;29;20442;-37
2021/07/24 04:52:41;;;;;;;35.78;16.95;;;;;;;16.83;79.86;101107.13;4795612;29;20556;-37
2021/07/24 04:55:08;;;;;;;43.97;17.75;;;;;;;16.90;79.42;101101.94;4796579;29;20082;-37
2021/07/24 04:57:35;;;;;;;38.28;16.92;;;;;;;16.94;78.98;101112.00;4799519;29;20146;-38
2021/07/24 05:00:02;;;;;;;37.42;16.48;;;;;;;16.96;79.33;101106.50;4796043;29;20923;-38
2021/07/24 05:02:29;;;;;;;44.88;16.45;;;;;;;16.99;79.29;101084.94;4801110;29;20532;-38
2021/07/24 05:04:57;;;;;;;44.35;17.80;;;;;;;17.02;79.36;101067.88;4795628;29;20065;-37
2021/07/24 05:07:23;;;;;;;40.97;17.52;;;;;;;17.05;79.40;101059.53;4799743;29;20142;-37
2021/07/24 05:09:50;;;;;;;38.53;16.23;;;;;;;17.11;78.91;101046.41;4794090;29;20063;-37
2021/07/24 05:12:16;;;;;;;39.30;17.48;;;;;;;17.15;78.58;101047.66;4813463;29;20153;-37
2021/07/24 05:14:43;;;;;;;43.78;17.42;;;;;;;17.22;78.76;101038.97;4796547;29;20153;-37
2021/07/24 05:17:11;;;;;;;49.55;17.80;;;;;;;17.29;78.30;101039.84;4799887;29;20158;-37
2021/07/24 05:19:43;;;;;;;46.08;17.95;;;;;;;17.32;78.29;101050.91;4801009;29;20057;-37
2021/07/24 05:22:12;;;;;;;42.35;15.75;;;;;;;17.36;78.09;101049.53;4791301;29;20086;-37
2021/07/24 05:24:43;;;;;;;43.75;17.50;;;;;;;17.43;78.36;101054.13;4796988;29;20804;-37
2021/07/24 05:27:11;;;;;;;47.00;16.63;;;;;;;17.51;77.50;101054.00;4795423;29;20547;-37
2021/07/24 05:29:38;;;;;;;45.15;17.27;;;;;;;17.54;78.21;101050.97;4800868;29;20452;-37
2021/07/24 05:32:05;;;;;;;48.65;18.35;;;;;;;17.59;77.61;101040.63;4793984;29;20181;-37
2021/07/24 05:34:32;;;;;;;43.67;19.02;;;;;;;17.61;77.84;101051.06;4798933;29;20059;-37
2021/07/24 05:36:58;;;;;;;45.72;19.35;;;;;;;17.62;77.22;101058.84;4787021;29;20116;-37
2021/07/24 05:39:25;;;;;;;47.60;18.73;;;;;;;17.69;77.05;101059.72;4806578;29;20141;-37
2021/07/24 05:41:51;;;;;;;42.95;17.80;;;;;;;17.71;77.02;101063.00;4800349;29;20057;-37
2021/07/24 05:44:18;;;;;;;47.60;18.52;;;;;;;17.69;76.15;101057.06;4795499;29;20112;-37
2021/07/24 05:46:47;;;;;;;45.83;18.65;;;;;;;17.74;75.92;101065.28;4803233;29;20183;-38
2021/07/24 05:49:13;;;;;;;48.28;18.42;;;;;;;17.75;75.78;101061.63;4808494;29;20069;-38
2021/07/24 05:51:40;;;;;;;46.30;17.55;;;;;;;17.82;75.71;101060.84;4800935;29;20058;-38
2021/07/24 05:54:13;;;;;;;47.30;18.15;;;;;;;17.82;75.63;101059.03;4805044;29;20150;-38
2021/07/24 05:56:39;;;;;;;50.70;19.52;;;;;;;17.90;75.30;101061.59;4812707;29;20150;-38
2021/07/24 05:59:06;;;;;;;51.90;19.23;;;;;;;17.90;75.59;101063.44;4799979;29;20162;-38
2021/07/24 06:01:32;;;;;;;51.78;18.75;;;;;;;17.95;74.55;101059.22;4805860;29;20073;-38
2021/07/24 06:03:59;;;;;;;47.05;18.23;;;;;;;17.96;74.96;101044.09;4799382;29;20058;-38
2021/07/24 06:06:26;;;;;;;46.10;18.50;;;;;;;17.99;75.29;101041.06;4793511;29;20161;-38
2021/07/24 06:08:52;;;;;;;57.47;20.20;;;;;;;17.96;75.47;101041.44;4799362;29;20887;-38
2021/07/24 06:11:18;;;;;;;46.03;19.10;;;;;;;18.03;74.84;101037.00;4795411;29;20483;-38
2021/07/24 06:13:45;;;;;;;46.53;18.77;;;;;;;18.01;74.58;101032.91;4800436;29;20150;-38
2021/07/24 06:16:12;;;;;;;48.95;18.65;;;;;;;18.06;74.64;101030.53;4791626;29;20058;-37
2021/07/24 06:18:38;;;;;;;52.63;17.48;;;;;;;18.14;74.38;101038.34;4796287;29;20065;-37
2021/07/24 06:21:05;;;;;;;42.40;16.83;;;;;;;18.26;73.49;101034.16;4811000;29;20145;-37
2021/07/24 06:23:31;;;;;;;51.15;17.08;;;;;;;18.35;73.27;101018.91;4786905;29;20726;-37
2021/07/24 06:26:01;;;;;;;54.95;19.35;;;;;;;18.43;73.64;101016.13;4781787;29;20146;-37
2021/07/24 06:28:28;;;;;;;51.47;19.90;;;;;;;18.53;73.23;101023.75;4776485;29;20146;-37
2021/07/24 06:30:55;;;;;;;38.60;16.40;;;;;;;18.51;72.53;101023.13;4777936;29;20154;-37
2021/07/24 06:33:21;;;;;;;44.72;16.55;;;;;;;18.65;72.45;101032.00;4772720;29;20052;-37
2021/07/24 06:35:48;;;;;;;55.50;18.00;;;;;;;18.67;72.30;101029.97;4781691;29;20155;-37
2021/07/24 06:38:14;;;;;;;50.95;19.70;;;;;;;18.73;72.19;101034.50;4794106;29;20055;-37
2021/07/24 06:40:40;;;;;;;51.00;17.48;;;;;;;18.83;71.71;101028.84;4794644;29;20584;-37
2021/07/24 06:43:07;;;;;;;53.78;19.63;;;;;;;18.82;71.97;101028.03;4803079;29;20177;-37
2021/07/24 06:45:33;;;;;;;52.13;19.67;;;;;;;18.90;71.76;101019.09;4798463;29;20119;-37
2021/07/24 06:48:00;;;;;;;50.28;19.08;;;;;;;18.92;71.31;101020.53;4799261;29;20068;-37
2021/07/24 06:50:26;;;;;;;48.50;19.05;;;;;;;19.01;71.28;101012.38;4806784;29;20153;-37
2021/07/24 06:52:57;;;;;;;55.20;19.25;;;;;;;19.01;71.49;101002.56;4798844;29;20058;-37
2021/07/24 06:55:24;;;;;;;49.58;19.65;;;;;;;19.06;71.09;100994.81;4799245;29;20093;-37
2021/07/24 06:57:50;;;;;;;49.83;18.08;;;;;;;19.09;71.35;100989.13;4788654;29;20162;-37
2021/07/24 07:00:17;;;;;;;51.83;19.50;;;;;;;19.15;71.49;100984.81;4795610;29;20059;-38
2021/07/24 07:02:43;;;;;;;57.78;20.40;;;;;;;19.26;70.94;100983.44;4800445;29;20082;-37
2021/07/24 07:05:11;;;;;;;53.20;20.67;;;;;;;19.28;70.97;100981.41;4804565;29;20051;-37
2021/07/24 07:07:37;;;;;;;48.85;19.15;;;;;;;19.32;70.95;100972.00;4794577;29;20426;-37
2021/07/24 07:10:04;;;;;;;58.58;21.52;;;;;;;19.42;71.17;100979.59;4807957;29;20093;-37
2021/07/24 07:12:30;;;;;;;52.00;19.45;;;;;;;19.47;71.06;100977.16;4800539;29;20459;-37
2021/07/24 07:14:59;;;;;;;52.95;17.92;;;;;;;19.55;70.91;100971.66;4791209;29;20074;-37
2021/07/24 07:17:25;;;;;;;52.58;20.58;;;;;;;19.59;70.48;100980.88;4799156;29;20477;-37
2021/07/24 07:19:51;;;;;;;45.88;18.15;;;;;;;19.56;70.09;100984.75;4797043;29;20068;-37
2021/07/24 07:22:18;;;;;;;53.13;20.33;;;;;;;19.59;70.00;100972.88;4802795;29;20141;-37
2021/07/24 07:24:44;;;;;;;50.08;19.48;;;;;;;19.68;70.21;100984.16;4797464;29;20158;-37
2021/07/24 07:27:11;;;;;;;48.55;18.70;;;;;;;19.73;70.02;100981.75;4799306;29;20567;-37
2021/07/24 07:29:37;;;;;;;49.47;19.38;;;;;;;19.81;70.48;100989.53;4797985;29;20142;-37
2021/07/24 07:32:04;;;;;;;46.33;19.75;;;;;;;19.88;70.44;100989.53;4804834;29;20086;-37
2021/07/24 07:34:31;;;;;;;48.42;17.60;;;;;;;20.01;70.12;100986.06;4803231;29;20089;-38
2021/07/24 07:36:59;;;;;;;48.20;20.40;;;;;;;20.04;70.06;100973.16;4792300;29;20141;-37
2021/07/24 07:39:25;;;;;;;51.30;21.23;;;;;;;20.10;69.30;100963.53;4795692;29;20177;-37
2021/07/24 07:41:52;;;;;;;45.92;19.45;;;;;;;20.23;69.39;100960.88;4793431;29;20145;-38
2021/07/24 07:44:18;;;;;;;46.80;16.80;;;;;;;20.33;68.90;100963.09;4804622;29;20510;-37
2021/07/24 07:46:45;;;;;;;56.03;21.73;;;;;;;20.37;68.44;100959.00;4800172;29;20141;-37
2021/07/24 07:49:11;;;;;;;53.35;20.73;;;;;;;20.44;68.05;100956.31;4795359;29;20134;-37
2021/07/24 07:51:38;;;;;;;47.88;18.52;;;;;;;20.54;68.79;100954.84;4794252;29;20138;-37
2021/07/24 07:54:04;;;;;;;48.47;19.42;;;;;;;20.58;67.79;100943.75;4793102;29;20158;-37
2021/07/24 07:56:31;;;;;;;52.80;21.13;;;;;;;20.63;67.94;100936.00;4797661;29;20141;-38
2021/07/24 07:58:57;;;;;;;44.45;20.02;;;;;;;20.68;67.99;100938.84;4784498;29;20051;-37
2021/07/24 08:01:23;;;;;;;46.45;19.25;;;;;;;20.79;67.40;100932.84;4797639;29;20166;-37
2021/07/24 08:03:50;;;;;;;43.47;17.38;;;;;;;20.90;66.49;100924.22;4797687;29;20062;-37
2021/07/24 08:06:17;;;;;;;43.95;19.38;;;;;;;20.91;66.36;100920.53;4794282;29;20503;-37
2021/07/24 08:08:43;;;;;;;46.75;18.48;;;;;;;20.98;67.11;100920.47;4794269;29;20141;-37
2021/07/24 08:11:10;;;;;;;41.20;18.33;;;;;;;21.05;66.32;100909.75;4793140;29;20229;-37
2021/07/24 08:13:36;;;;;;;38.72;18.58;;;;;;;21.07;66.32;100915.69;4792491;29;20237;-37
2021/07/24 08:16:11;;;;;;;38.90;17.00;;;;;;;21.18;66.08;100907.03;4784987;29;20055;-37
2021/07/24 08:18:37;;;;;;;42.92;18.38;;;;;;;21.30;66.35;100899.97;4795536;29;20058;-37
2021/07/24 08:21:04;;;;;;;36.72;16.90;;;;;;;21.41;65.42;100884.31;4779441;29;20162;-37
2021/07/24 08:23:30;;;;;;;39.05;18.25;;;;;;;21.50;65.61;100886.53;4791988;29;20159;-37
2021/07/24 08:25:57;;;;;;;45.72;18.13;;;;;;;21.50;64.70;100881.19;4780822;29;20082;-37
2021/07/24 08:28:28;;;;;;;42.00;19.05;;;;;;;21.56;64.01;100876.00;4783216;29;20059;-37
2021/07/24 08:30:55;;;;;;;39.42;17.55;;;;;;;21.70;64.65;100874.88;4780370;29;20063;-37
2021/07/24 08:33:22;;;;;;;39.05;18.42;;;;;;;21.88;63.87;100882.09;4771190;29;20112;-37
2021/07/24 08:35:48;;;;;;;38.40;17.83;;;;;;;22.09;63.61;100880.84;4777254;29;20058;-37
2021/07/24 08:38:15;;;;;;;39.63;17.73;;;;;;;22.38;62.86;100892.69;4787025;29;20142;-37
2021/07/24 08:40:45;;;;;;;31.85;16.08;;;;;;;22.69;62.15;100890.91;4799292;29;20061;-37
2021/07/24 08:43:13;;;;;;;37.70;17.45;;;;;;;22.95;61.48;100888.91;4794426;29;20978;-37
2021/07/24 08:45:39;;;;;;;39.33;16.73;;;;;;;23.21;60.53;100885.09;4798484;29;20145;-37
2021/07/24 08:48:06;;;;;;;36.72;17.45;;;;;;;23.44;59.80;100873.59;4791629;29;20973;-37
2021/07/24 08:50:34;;;;;;;35.28;17.55;;;;;;;23.62;59.07;100873.53;4802663;29;20154;-37
2021/07/24 08:53:06;;;;;;;35.42;16.00;;;;;;;23.73;58.85;100873.75;4809862;29;20507;-38
2021/07/24 08:55:37;;;;;;;35.63;18.15;;;;;;;23.74;58.69;100870.84;4810495;29;20578;-37
2021/07/24 08:58:09;;;;;;;34.05;15.25;;;;;;;23.81;58.97;100873.44;4803945;29;20388;-37
2021/07/24 09:00:36;;;;;;;36.97;16.40;;;;;;;23.90;58.65;100882.75;4788465;29;20104;-37
2021/07/24 09:03:03;;;;;;;35.50;17.27;;;;;;;23.91;58.17;100879.00;4793975;29;20464;-37
2021/07/24 09:05:31;;;;;;;29.10;15.88;;;;;;;24.01;58.31;100875.75;4799891;29;20081;-37
2021/07/24 09:08:00;;;;;;;29.10;15.85;;;;;;;24.16;57.95;100867.25;4799887;29;20582;-37
2021/07/24 09:10:27;;;;;;;29.80;14.80;;;;;;;24.23;57.97;100859.91;4799228;29;20147;-37
2021/07/24 09:12:58;;;;;;;25.25;14.38;;;;;;;24.39;58.11;100859.16;4790591;29;20105;-37
2021/07/24 09:15:25;;;;;;;29.98;14.63;;;;;;;24.52;57.79;100866.16;4803905;29;20058;-37
2021/07/24 09:17:51;;;;;;;25.92;14.45;;;;;;;24.82;57.43;100859.72;4789445;29;20061;-37
2021/07/24 09:20:23;;;;;;;23.35;13.50;;;;;;;25.08;55.77;100854.81;4798153;29;20146;-37
2021/07/24 09:22:49;;;;;;;28.40;14.32;;;;;;;25.25;56.03;100858.38;4792383;29;20112;-37
2021/07/24 09:25:18;;;;;;;28.65;14.98;;;;;;;25.25;54.84;100845.75;4783593;29;20142;-37
2021/07/24 09:27:54;;;;;;;27.88;14.85;;;;;;;25.34;55.20;100846.16;4780708;29;20832;-37
2021/07/24 09:30:24;;;;;;;19.80;11.82;;;;;;;25.46;54.78;100846.06;4773418;29;20067;-37
2021/07/24 09:33:07;;;;;;;21.75;13.20;;;;;;;25.50;55.02;100846.38;4782638;29;20059;-37
2021/07/24 09:35:37;;;;;;;24.40;13.55;;;;;;;25.56;55.70;100848.94;4789031;29;20090;-38
2021/07/24 09:38:06;;;;;;;26.40;15.30;;;;;;;25.51;55.42;100850.72;4799356;29;20062;-38
2021/07/24 09:40:36;;;;;;;33.05;14.85;;;;;;;25.53;56.10;100854.78;4777237;29;20153;-38
2021/07/24 09:43:03;;;;;;;25.67;14.40;;;;;;;25.54;55.62;100853.72;4777120;29;20151;-38
2021/07/24 09:45:30;;;;;;;26.52;14.07;;;;;;;25.50;55.07;100860.66;4796723;29;20113;-38
2021/07/24 09:48:16;;;;;;;24.50;14.02;;;;;;;25.49;54.24;100864.38;4812571;29;20058;-38
2021/07/24 09:50:48;;;;;;;27.95;15.10;;;;;;;25.41;55.30;100860.22;4791354;29;20133;-38
2021/07/24 09:53:33;;;;;;;25.55;14.38;;;;;;;25.37;54.73;100866.34;4796396;29;20102;-38
2021/07/24 09:56:00;;;;;;;22.20;12.77;;;;;;;25.32;54.51;100874.31;4805429;29;20141;-38
2021/07/24 09:58:27;;;;;;;29.50;15.73;;;;;;;25.33;54.44;100865.19;4790601;29;20073;-38
2021/07/24 10:01:05;;;;;;;31.83;14.77;;;;;;;25.35;55.28;100873.81;4806906;29;20124;-38
2021/07/24 10:03:35;;;;;;;24.35;14.65;;;;;;;25.29;54.91;100882.84;4798122;29;20734;-38
2021/07/24 10:06:16;;;;;;;22.63;14.98;;;;;;;25.23;54.24;100890.00;4800322;29;21498;-38
2021/07/24 10:08:46;;;;;;;24.83;14.10;;;;;;;25.30;54.94;100887.97;4797453;29;20475;-37
2021/07/24 10:11:13;;;;;;;27.90;15.60;;;;;;;25.32;54.76;100887.72;4795188;29;20483;-37
2021/07/24 10:13:42;;;;;;;25.83;14.60;;;;;;;25.26;55.44;100890.31;4811299;29;20728;-37
2021/07/24 10:16:09;;;;;;;28.90;15.40;;;;;;;25.26;55.46;100882.25;4802136;29;20819;-37
2021/07/24 10:18:38;;;;;;;25.95;15.23;;;;;;;25.24;56.26;100891.63;4807018;29;20430;-37
2021/07/24 10:21:05;;;;;;;26.73;15.75;;;;;;;25.32;56.37;100893.09;4800123;29;20069;-37
2021/07/24 10:23:33;;;;;;;28.80;15.85;;;;;;;25.33;55.73;100897.41;4794766;29;20138;-37
2021/07/24 10:26:15;;;;;;;27.40;16.08;;;;;;;25.29;55.22;100913.19;4794240;29;20110;-37
2021/07/24 10:28:56;;;;;;;25.80;16.08;;;;;;;25.31;54.82;100923.69;4796397;29;20154;-37
2021/07/24 10:31:24;;;;;;;28.42;16.90;;;;;;;25.25;54.51;100920.09;4789360;29;20166;-37
2021/07/24 10:33:58;;;;;;;25.83;15.95;;;;;;;25.34;55.31;100920.50;4796533;29;20142;-37
2021/07/24 10:36:39;;;;;;;26.10;15.02;;;;;;;25.38;54.86;100925.13;4782219;29;20238;-37
2021/07/24 10:39:10;;;;;;;27.40;16.45;;;;;;;25.45;55.43;100925.00;4789968;29;20059;-37
2021/07/24 10:41:40;;;;;;;25.02;15.45;;;;;;;25.41;54.63;100919.31;4786549;29;20051;-38
2021/07/24 10:44:12;;;;;;;28.27;18.13;;;;;;;25.39;55.37;100926.78;4778893;29;20150;-37
2021/07/24 10:46:44;;;;;;;29.10;17.40;;;;;;;25.39;55.84;100921.41;4790034;29;20179;-37
2021/07/24 10:49:23;;;;;;;27.85;16.23;;;;;;;25.36;55.67;100929.13;4793150;29;20669;-37
2021/07/24 10:51:53;;;;;;;29.25;17.73;;;;;;;25.36;55.95;100918.41;4796596;29;20508;-37
2021/07/24 10:54:22;;;;;;;25.00;16.63;;;;;;;25.33;56.18;100918.91;4796240;29;20537;-37
2021/07/24 10:56:49;;;;;;;30.27;17.15;;;;;;;25.32;55.56;100911.88;4799536;29;20153;-37
2021/07/24 10:59:25;;;;;;;28.98;17.75;;;;;;;25.34;54.92;100907.09;4793611;29;20138;-37
2021/07/24 11:01:58;;;;;;;25.17;16.95;;;;;;;25.34;55.29;100907.91;4794963;29;20063;-37
2021/07/24 11:04:38;;;;;;;25.88;16.80;;;;;;;25.35;55.94;100900.69;4795651;29;20746;-37
2021/07/24 11:07:17;;;;;;;29.75;17.38;;;;;;;25.33;55.62;100895.53;4795256;29;20094;-37
2021/07/24 11:09:54;;;;;;;25.42;15.93;;;;;;;25.31;55.47;100889.59;4801722;29;20095;-38
2021/07/24 11:12:34;;;;;;;26.33;17.25;;;;;;;25.34;56.46;100888.28;4793664;29;20050;-38
2021/07/24 11:15:05;;;;;;;25.63;17.45;;;;;;;25.31;56.09;100889.59;4799160;29;20389;-38
2021/07/24 11:17:32;;;;;;;25.88;16.33;;;;;;;25.29;56.29;100880.16;4790005;29;20179;-38